Time;durP1;ratioP1;P1;durP2;ratioP2;P2;SDS_P1;SDS_P2;PMS_P1;PMS_P2;Temp;Humidity;BMP_temperature;BMP_pressure;BME280_temperature;BME280_humidity;BME280_pressure;Samples;Min_cycle;Max_cycle;Signal;HPM_P1;HPM_P2
2023/03/14 00:00:32;;;;;;;24.90;4.90;;;;;;;;;;5078959;28;20537;-78
2023/03/14 00:02:58;;;;;;;26.58;4.95;;;;;;;;;;5091248;28;20101;-78
2023/03/14 00:05:24;;;;;;;22.90;4.30;;;;;;;;;;5072975;28;20124;-78
2023/03/14 00:07:51;;;;;;;24.48;5.18;;;;;;;;;;5072323;28;20049;-78
2023/03/14 00:10:17;;;;;;;23.73;4.90;;;;;;;;;;5071401;28;20090;-78
2023/03/14 00:12:43;;;;;;;24.40;5.10;;;;;;;;;;5084270;28;20048;-78
2023/03/14 00:15:09;;;;;;;23.08;4.07;;;;;;;;;;5081670;28;20055;-78
2023/03/14 00:17:36;;;;;;;29.30;4.97;;;;;;;;;;5076211;28;20437;-78
2023/03/14 00:20:10;;;;;;;24.73;4.82;;;;;;;;;;5081093;28;20039;-78
2023/03/14 00:22:37;;;;;;;25.15;4.60;;;;;;;;;;5091511;28;20173;-78
2023/03/14 00:25:03;;;;;;;23.02;4.70;;;;;;;;;;5079227;28;20113;-78
2023/03/14 00:27:29;;;;;;;27.42;5.40;;;;;;;;;;5075814;28;20047;-78
2023/03/14 00:29:55;;;;;;;26.67;4.75;;;;;;;;;;5072066;28;20052;-78
2023/03/14 00:32:25;;;;;;;26.63;4.78;;;;;;;;;;5083779;28;20048;-78
2023/03/14 00:34:51;;;;;;;23.25;5.20;;;;;;;;;;5091136;28;20410;-78
2023/03/14 00:37:17;;;;;;;21.45;4.30;;;;;;;;;;5074180;28;20048;-78
2023/03/14 00:39:43;;;;;;;23.75;4.72;;;;;;;;;;5077684;28;20040;-78
2023/03/14 00:42:09;;;;;;;21.60;5.00;;;;;;;;;;5089830;28;20105;-78
2023/03/14 00:44:35;;;;;;;17.35;4.28;;;;;;;;;;5078192;28;20066;-78
2023/03/14 00:47:01;;;;;;;18.33;4.80;;;;;;;;;;5075883;28;20544;-78
2023/03/14 00:49:27;;;;;;;19.48;4.63;;;;;;;;;;5075848;28;20043;-78
2023/03/14 00:51:53;;;;;;;16.90;4.05;;;;;;;;;;5082380;28;20478;-78
2023/03/14 00:54:20;;;;;;;17.63;4.43;;;;;;;;;;5075573;28;20045;-78
2023/03/14 00:56:46;;;;;;;17.15;4.85;;;;;;;;;;5078508;28;20043;-78
2023/03/14 00:59:12;;;;;;;19.20;5.03;;;;;;;;;;5087240;28;20071;-78
2023/03/14 01:01:39;;;;;;;20.77;5.53;;;;;;;;;;5085378;28;20505;-78
2023/03/14 01:04:05;;;;;;;16.13;4.95;;;;;;;;;;5087217;28;20052;-78
2023/03/14 01:06:31;;;;;;;19.33;5.35;;;;;;;;;;5084309;28;20048;-78
2023/03/14 01:08:57;;;;;;;19.55;5.68;;;;;;;;;;5091658;28;20096;-78
2023/03/14 01:11:31;;;;;;;16.40;5.00;;;;;;;;;;5084655;28;20040;-78
2023/03/14 01:13:57;;;;;;;15.82;5.05;;;;;;;;;;5091406;28;20047;-78
2023/03/14 01:16:23;;;;;;;16.20;5.32;;;;;;;;;;5090346;28;20044;-78
2023/03/14 01:18:50;;;;;;;19.00;5.53;;;;;;;;;;5082371;28;20059;-78
2023/03/14 01:21:17;;;;;;;15.55;5.50;;;;;;;;;;5090718;28;20036;-78
2023/03/14 01:23:44;;;;;;;14.90;5.15;;;;;;;;;;5089846;28;20040;-78
2023/03/14 01:26:11;;;;;;;16.25;4.93;;;;;;;;;;5093480;28;20048;-78
2023/03/14 01:28:37;;;;;;;16.02;4.65;;;;;;;;;;5085280;28;20048;-78
2023/03/14 01:31:04;;;;;;;16.98;5.13;;;;;;;;;;5076987;28;20478;-78
2023/03/14 01:33:30;;;;;;;16.67;4.75;;;;;;;;;;5105373;28;20045;-78
2023/03/14 01:35:56;;;;;;;16.17;4.25;;;;;;;;;;5096561;28;20079;-78
2023/03/14 01:38:22;;;;;;;18.52;4.88;;;;;;;;;;5110834;28;20040;-78
2023/03/14 01:40:48;;;;;;;16.58;4.07;;;;;;;;;;5108359;28;20033;-78
2023/03/14 01:43:16;;;;;;;14.10;3.95;;;;;;;;;;5105267;28;20077;-78
2023/03/14 01:46:01;;;;;;;17.88;4.10;;;;;;;;;;5084998;28;20047;-78
2023/03/14 01:48:29;;;;;;;12.63;3.35;;;;;;;;;;5108608;28;20063;-78
2023/03/14 01:50:55;;;;;;;20.00;4.03;;;;;;;;;;5098740;28;20040;-78
2023/03/14 01:53:21;;;;;;;17.52;4.25;;;;;;;;;;5092290;28;20047;-78
2023/03/14 01:55:48;;;;;;;15.70;3.88;;;;;;;;;;5090968;28;20437;-78
2023/03/14 01:58:15;;;;;;;20.88;4.10;;;;;;;;;;5099309;28;20040;-78
2023/03/14 02:00:42;;;;;;;21.38;4.30;;;;;;;;;;5101734;28;20659;-78
2023/03/14 02:03:11;;;;;;;17.48;4.78;;;;;;;;;;5099995;28;20040;-78
2023/03/14 02:05:39;;;;;;;19.63;4.45;;;;;;;;;;5090070;28;20497;-78
2023/03/14 02:08:07;;;;;;;18.25;4.13;;;;;;;;;;5089180;28;20049;-78
2023/03/14 02:10:37;;;;;;;18.80;4.05;;;;;;;;;;5086022;28;20047;-77
2023/03/14 02:13:05;;;;;;;21.63;4.80;;;;;;;;;;5085000;28;20123;-77
2023/03/14 02:15:31;;;;;;;18.20;3.78;;;;;;;;;;5090542;28;20044;-78
2023/03/14 02:17:57;;;;;;;18.92;3.88;;;;;;;;;;5082757;28;20047;-78
2023/03/14 02:20:28;;;;;;;19.77;4.40;;;;;;;;;;5098650;28;20036;-77
2023/03/14 02:22:54;;;;;;;20.17;3.97;;;;;;;;;;5098147;28;20482;-77
2023/03/14 02:25:25;;;;;;;21.65;4.90;;;;;;;;;;5092777;28;20041;-77
2023/03/14 02:27:51;;;;;;;19.08;4.22;;;;;;;;;;5084080;28;20047;-77
2023/03/14 02:30:20;;;;;;;20.05;4.15;;;;;;;;;;5090767;28;20044;-78
2023/03/14 02:32:47;;;;;;;20.35;5.03;;;;;;;;;;5082774;28;20402;-77
2023/03/14 02:35:16;;;;;;;23.70;4.60;;;;;;;;;;5079444;28;20112;-77
2023/03/14 02:37:46;;;;;;;16.75;3.80;;;;;;;;;;5083357;28;20094;-78
2023/03/14 02:40:12;;;;;;;18.23;4.63;;;;;;;;;;5076577;28;20044;-77
2023/03/14 02:42:39;;;;;;;19.23;4.45;;;;;;;;;;5073889;28;20032;-77
2023/03/14 02:45:10;;;;;;;19.27;4.25;;;;;;;;;;5083878;28;20532;-78
2023/03/14 02:47:41;;;;;;;19.27;4.10;;;;;;;;;;5089480;28;20087;-77
2023/03/14 02:50:13;;;;;;;18.98;4.60;;;;;;;;;;5080047;28;20056;-77
2023/03/14 02:52:39;;;;;;;18.50;4.18;;;;;;;;;;5073920;28;20441;-77
2023/03/14 02:55:06;;;;;;;22.02;4.72;;;;;;;;;;5078150;28;20044;-77
2023/03/14 02:57:32;;;;;;;24.35;4.70;;;;;;;;;;5084862;28;20093;-79
2023/03/14 02:59:59;;;;;;;18.33;4.30;;;;;;;;;;5082940;28;20048;-77
2023/03/14 03:02:25;;;;;;;16.67;4.05;;;;;;;;;;5081173;28;20044;-77
2023/03/14 03:04:51;;;;;;;16.33;3.88;;;;;;;;;;5073206;28;20048;-77
2023/03/14 03:07:18;;;;;;;17.15;4.10;;;;;;;;;;5072972;28;20063;-77
2023/03/14 03:09:45;;;;;;;17.40;4.07;;;;;;;;;;5079481;28;20105;-77
2023/03/14 03:12:11;;;;;;;15.95;3.90;;;;;;;;;;5091084;28;20093;-77
2023/03/14 03:14:37;;;;;;;16.30;3.70;;;;;;;;;;5082025;28;20398;-77
2023/03/14 03:17:04;;;;;;;14.85;3.50;;;;;;;;;;5091102;28;20037;-77
2023/03/14 03:19:30;;;;;;;13.85;3.10;;;;;;;;;;5081892;28;20040;-77
2023/03/14 03:21:57;;;;;;;13.35;2.88;;;;;;;;;;5081512;28;20048;-77
2023/03/14 03:24:23;;;;;;;15.02;3.60;;;;;;;;;;5087615;28;20048;-78
2023/03/14 03:26:49;;;;;;;12.60;3.10;;;;;;;;;;5079278;28;20040;-78
2023/03/14 03:29:15;;;;;;;9.30;2.85;;;;;;;;;;5072532;28;20062;-77
2023/03/14 03:31:41;;;;;;;9.88;3.10;;;;;;;;;;5076420;28;20039;-77
2023/03/14 03:34:08;;;;;;;11.15;2.90;;;;;;;;;;5075229;28;20051;-78
2023/03/14 03:36:34;;;;;;;17.50;3.53;;;;;;;;;;5086075;28;20047;-78
2023/03/14 03:39:00;;;;;;;11.05;2.78;;;;;;;;;;5087661;28;20048;-77
2023/03/14 03:41:26;;;;;;;12.68;3.42;;;;;;;;;;5077481;28;20076;-78
2023/03/14 03:43:53;;;;;;;10.70;3.22;;;;;;;;;;5075801;28;20048;-77
2023/03/14 03:46:20;;;;;;;12.13;3.35;;;;;;;;;;5083952;28;20505;-77
2023/03/14 03:48:46;;;;;;;14.77;3.10;;;;;;;;;;5079318;28;20449;-77
2023/03/14 03:51:13;;;;;;;13.30;3.35;;;;;;;;;;5071545;28;20036;-77
2023/03/14 03:53:39;;;;;;;16.42;3.55;;;;;;;;;;5071263;28;20483;-78
2023/03/14 03:56:05;;;;;;;9.93;3.33;;;;;;;;;;5072635;28;20040;-78
2023/03/14 03:58:31;;;;;;;13.63;3.40;;;;;;;;;;5072263;28;20036;-77
2023/03/14 04:00:57;;;;;;;11.95;3.65;;;;;;;;;;5077458;28;20044;-78
2023/03/14 04:03:24;;;;;;;11.32;3.30;;;;;;;;;;5075631;28;20044;-77
2023/03/14 04:06:00;;;;;;;17.15;4.43;;;;;;;;;;5073230;28;20068;-77
2023/03/14 04:08:26;;;;;;;17.17;4.35;;;;;;;;;;5090630;28;20106;-77
2023/03/14 04:10:54;;;;;;;13.77;4.30;;;;;;;;;;5082079;28;20476;-77
2023/03/14 04:13:21;;;;;;;13.75;3.90;;;;;;;;;;5089409;28;20047;-77
2023/03/14 04:15:47;;;;;;;15.50;4.10;;;;;;;;;;5075892;28;20452;-77
2023/03/14 04:18:13;;;;;;;13.00;3.65;;;;;;;;;;5084537;28;20044;-77
2023/03/14 04:20:39;;;;;;;15.60;4.20;;;;;;;;;;5076842;28;20048;-78
2023/03/14 04:23:05;;;;;;;14.50;3.75;;;;;;;;;;5081358;28;20125;-77
2023/03/14 04:25:31;;;;;;;16.13;4.18;;;;;;;;;;5073651;28;20052;-77
2023/03/14 04:27:57;;;;;;;15.25;3.83;;;;;;;;;;5076676;28;20040;-77
2023/03/14 04:30:23;;;;;;;12.35;3.67;;;;;;;;;;5071456;28;20054;-77
2023/03/14 04:32:49;;;;;;;18.98;3.92;;;;;;;;;;5082860;28;20037;-77
2023/03/14 04:35:15;;;;;;;13.35;3.30;;;;;;;;;;5075801;28;20402;-77
2023/03/14 04:37:43;;;;;;;13.38;3.50;;;;;;;;;;5077416;28;20036;-77
2023/03/14 04:40:09;;;;;;;13.93;3.15;;;;;;;;;;5081384;28;20115;-77
2023/03/14 04:42:35;;;;;;;16.35;3.75;;;;;;;;;;5080533;28;20571;-77
2023/03/14 04:45:01;;;;;;;15.23;3.38;;;;;;;;;;5077155;28;20040;-77
2023/03/14 04:47:28;;;;;;;14.90;3.90;;;;;;;;;;5077111;28;20044;-77
2023/03/14 04:49:54;;;;;;;17.42;4.00;;;;;;;;;;5072683;28;20044;-77
2023/03/14 04:52:20;;;;;;;13.98;5.20;;;;;;;;;;5092111;28;20048;-78
2023/03/14 04:54:46;;;;;;;12.02;3.67;;;;;;;;;;5084178;28;20041;-77
2023/03/14 04:57:12;;;;;;;14.40;4.45;;;;;;;;;;5081147;28;20498;-77
2023/03/14 04:59:38;;;;;;;15.82;5.10;;;;;;;;;;5084058;28;20409;-77
2023/03/14 05:02:04;;;;;;;13.13;4.60;;;;;;;;;;5094869;28;20044;-77
2023/03/14 05:04:32;;;;;;;15.48;4.05;;;;;;;;;;5096326;28;20056;-77
2023/03/14 05:06:58;;;;;;;17.52;4.80;;;;;;;;;;5079650;28;20517;-77
2023/03/14 05:09:24;;;;;;;17.27;4.78;;;;;;;;;;5095320;28;20077;-77
2023/03/14 05:11:51;;;;;;;13.57;4.97;;;;;;;;;;5094368;28;20402;-77
2023/03/14 05:14:17;;;;;;;16.98;5.88;;;;;;;;;;5092735;28;20044;-77
2023/03/14 05:16:43;;;;;;;13.10;4.93;;;;;;;;;;5076416;28;20504;-77
2023/03/14 05:19:09;;;;;;;14.10;5.38;;;;;;;;;;5084377;28;20555;-77
2023/03/14 05:21:35;;;;;;;18.08;5.22;;;;;;;;;;5095449;28;20044;-77
2023/03/14 05:24:01;;;;;;;14.20;4.78;;;;;;;;;;5078657;28;20098;-77
2023/03/14 05:26:27;;;;;;;15.38;5.60;;;;;;;;;;5080222;28;20044;-77
2023/03/14 05:28:53;;;;;;;12.30;4.72;;;;;;;;;;5075175;28;20041;-78
2023/03/14 05:31:19;;;;;;;12.38;5.38;;;;;;;;;;5094145;28;20040;-77
2023/03/14 05:33:45;;;;;;;13.93;5.15;;;;;;;;;;5083044;28;20041;-78
2023/03/14 05:36:11;;;;;;;14.55;4.85;;;;;;;;;;5079714;28;20040;-77
2023/03/14 05:38:37;;;;;;;12.32;4.90;;;;;;;;;;5079850;28;20496;-77
2023/03/14 05:41:04;;;;;;;11.25;4.70;;;;;;;;;;5075672;28;20486;-77
2023/03/14 05:43:30;;;;;;;14.50;4.53;;;;;;;;;;5086301;28;20048;-77
2023/03/14 05:45:56;;;;;;;13.45;4.28;;;;;;;;;;5078182;28;20052;-77
2023/03/14 05:48:22;;;;;;;13.68;4.80;;;;;;;;;;5075752;28;20123;-77
2023/03/14 05:50:48;;;;;;;14.80;5.20;;;;;;;;;;5075451;28;20045;-77
2023/03/14 05:53:14;;;;;;;15.13;4.50;;;;;;;;;;5082214;28;20048;-77
2023/03/14 05:55:40;;;;;;;13.25;4.43;;;;;;;;;;5084026;28;20501;-77
2023/03/14 05:58:07;;;;;;;14.65;4.68;;;;;;;;;;5082983;28;20045;-77
2023/03/14 06:00:33;;;;;;;14.40;4.22;;;;;;;;;;5091643;28;20047;-77
2023/03/14 06:02:59;;;;;;;18.50;4.75;;;;;;;;;;5089313;28;20052;-77
2023/03/14 06:05:25;;;;;;;15.25;4.63;;;;;;;;;;5075925;28;20066;-78
2023/03/14 06:07:51;;;;;;;12.50;4.18;;;;;;;;;;5092641;28;20062;-78
2023/03/14 06:10:17;;;;;;;14.77;4.63;;;;;;;;;;5057033;28;20040;-77
2023/03/14 06:12:43;;;;;;;15.25;4.65;;;;;;;;;;5075340;28;20045;-77
2023/03/14 06:15:09;;;;;;;12.43;3.95;;;;;;;;;;5075792;28;20101;-78
2023/03/14 06:17:35;;;;;;;15.05;3.85;;;;;;;;;;5085656;28;20126;-77
2023/03/14 06:20:01;;;;;;;13.85;3.88;;;;;;;;;;5080179;28;20048;-78
2023/03/14 06:22:27;;;;;;;14.70;4.35;;;;;;;;;;5082036;28;20044;-78
2023/03/14 06:24:53;;;;;;;17.80;4.30;;;;;;;;;;5081389;28;20040;-77
2023/03/14 06:27:19;;;;;;;18.23;4.93;;;;;;;;;;5062184;28;20453;-77
2023/03/14 06:29:46;;;;;;;15.63;4.70;;;;;;;;;;5079386;28;20465;-78
2023/03/14 06:32:12;;;;;;;16.23;4.80;;;;;;;;;;5085467;28;20044;-78
2023/03/14 06:34:38;;;;;;;14.43;4.90;;;;;;;;;;5087540;28;20055;-78
2023/03/14 06:37:04;;;;;;;20.05;4.65;;;;;;;;;;5081649;28;20093;-77
2023/03/14 06:39:31;;;;;;;20.27;5.30;;;;;;;;;;5078960;28;20044;-78
2023/03/14 06:41:57;;;;;;;21.38;4.85;;;;;;;;;;5080384;28;20116;-78
2023/03/14 06:44:23;;;;;;;14.77;4.20;;;;;;;;;;5081710;28;20048;-78
2023/03/14 06:46:49;;;;;;;20.48;4.80;;;;;;;;;;5075002;28;20052;-78
2023/03/14 06:49:15;;;;;;;18.52;4.43;;;;;;;;;;5090376;28;20048;-78
2023/03/14 06:51:41;;;;;;;15.07;4.13;;;;;;;;;;5077666;28;20486;-78
2023/03/14 06:54:07;;;;;;;13.32;4.60;;;;;;;;;;5084309;28;20456;-78
2023/03/14 06:56:33;;;;;;;12.20;4.25;;;;;;;;;;5079263;28;20046;-78
2023/03/14 06:58:59;;;;;;;11.95;4.30;;;;;;;;;;5069927;28;20553;-78
2023/03/14 07:01:27;;;;;;;11.05;3.97;;;;;;;;;;5082298;28;20051;-77
2023/03/14 07:03:53;;;;;;;11.40;4.40;;;;;;;;;;5077768;28;20047;-78
2023/03/14 07:06:19;;;;;;;15.25;4.25;;;;;;;;;;5087193;28;20127;-78
2023/03/14 07:08:45;;;;;;;15.23;4.35;;;;;;;;;;5096097;28;20154;-78
2023/03/14 07:11:12;;;;;;;10.80;4.20;;;;;;;;;;5079622;28;20487;-78
2023/03/14 07:13:38;;;;;;;13.65;4.25;;;;;;;;;;5078050;28;20062;-78
2023/03/14 07:16:05;;;;;;;15.13;4.63;;;;;;;;;;5079179;28;20045;-78
2023/03/14 07:18:31;;;;;;;14.43;4.20;;;;;;;;;;5085142;28;20072;-79
2023/03/14 07:20:57;;;;;;;12.60;3.72;;;;;;;;;;5078550;28;20041;-79
2023/03/14 07:23:23;;;;;;;12.32;3.67;;;;;;;;;;5078817;28;20134;-79
2023/03/14 07:25:50;;;;;;;10.82;3.75;;;;;;;;;;5078339;28;20052;-79
2023/03/14 07:28:16;;;;;;;13.45;3.47;;;;;;;;;;5080095;28;20045;-79
2023/03/14 07:30:42;;;;;;;11.05;3.60;;;;;;;;;;5076937;28;20505;-79
2023/03/14 07:33:08;;;;;;;12.38;3.45;;;;;;;;;;5087217;28;20129;-79
2023/03/14 07:35:34;;;;;;;11.48;3.45;;;;;;;;;;5096685;28;20047;-79
2023/03/14 07:38:00;;;;;;;7.05;1.63;;;;;;;;;;5089078;28;20048;-78
2023/03/14 07:40:26;;;;;;;6.60;0.88;;;;;;;;;;5073157;28;20122;-79
2023/03/14 07:42:55;;;;;;;6.45;1.00;;;;;;;;;;5085288;28;20105;-79
2023/03/14 07:45:21;;;;;;;6.32;1.23;;;;;;;;;;5082915;28;20051;-79
2023/03/14 07:47:47;;;;;;;8.80;1.20;;;;;;;;;;5077990;28;20032;-79
2023/03/14 07:50:13;;;;;;;7.22;1.02;;;;;;;;;;5082727;28;20064;-79
2023/03/14 07:52:39;;;;;;;7.85;1.00;;;;;;;;;;5078576;28;20395;-79
2023/03/14 07:55:05;;;;;;;10.07;1.85;;;;;;;;;;5087069;28;20501;-79
2023/03/14 07:57:32;;;;;;;11.07;1.50;;;;;;;;;;5098878;28;20085;-80
2023/03/14 07:59:58;;;;;;;13.73;1.65;;;;;;;;;;5080529;28;20055;-78
2023/03/14 08:02:24;;;;;;;10.00;1.48;;;;;;;;;;5082992;28;20048;-77
2023/03/14 08:04:50;;;;;;;11.98;1.48;;;;;;;;;;5071445;28;20048;-77
2023/03/14 08:07:17;;;;;;;10.05;1.92;;;;;;;;;;5079268;28;20078;-78
2023/03/14 08:09:43;;;;;;;9.35;1.75;;;;;;;;;;5091875;28;20036;-78
2023/03/14 08:12:09;;;;;;;9.30;1.60;;;;;;;;;;5084616;28;20443;-78
2023/03/14 08:14:35;;;;;;;6.03;1.40;;;;;;;;;;5089337;28;20047;-78
2023/03/14 08:17:01;;;;;;;6.50;0.90;;;;;;;;;;5075718;28;20494;-78
2023/03/14 08:19:27;;;;;;;5.43;0.90;;;;;;;;;;5088414;28;20093;-78
2023/03/14 08:21:54;;;;;;;5.70;0.90;;;;;;;;;;5091701;28;20048;-79
2023/03/14 08:24:20;;;;;;;5.78;0.70;;;;;;;;;;5077397;28;20048;-79
2023/03/14 08:26:46;;;;;;;4.32;0.80;;;;;;;;;;5076251;28;20159;-78
2023/03/14 08:29:12;;;;;;;3.47;0.60;;;;;;;;;;5076888;28;20056;-79
2023/03/14 08:31:38;;;;;;;5.40;0.60;;;;;;;;;;5093670;28;20072;-79
2023/03/14 08:34:08;;;;;;;3.72;0.70;;;;;;;;;;5095237;28;20035;-78
2023/03/14 08:36:34;;;;;;;3.22;0.90;;;;;;;;;;5084348;28;20151;-79
2023/03/14 08:39:00;;;;;;;2.33;0.70;;;;;;;;;;5082558;28;20556;-78
2023/03/14 08:41:26;;;;;;;3.70;0.70;;;;;;;;;;5092901;28;20044;-79
2023/03/14 08:43:52;;;;;;;2.50;0.50;;;;;;;;;;5090694;28;20051;-79
2023/03/14 08:46:18;;;;;;;4.40;0.70;;;;;;;;;;5092852;28;20076;-78
2023/03/14 08:48:44;;;;;;;4.85;0.80;;;;;;;;;;5094871;28;20502;-78
2023/03/14 08:51:15;;;;;;;4.45;0.77;;;;;;;;;;5083038;28;20453;-78
2023/03/14 08:53:41;;;;;;;6.65;0.82;;;;;;;;;;5081186;28;20044;-78
2023/03/14 08:56:09;;;;;;;4.40;0.73;;;;;;;;;;5091394;28;20398;-78
2023/03/14 08:58:37;;;;;;;4.93;0.70;;;;;;;;;;5084507;28;20048;-78
2023/03/14 09:01:03;;;;;;;4.75;0.70;;;;;;;;;;5087591;28;20445;-78
2023/03/14 09:03:29;;;;;;;8.68;0.80;;;;;;;;;;5092561;28;20048;-78
2023/03/14 09:05:56;;;;;;;4.60;0.77;;;;;;;;;;5095991;28;20064;-79
2023/03/14 09:08:22;;;;;;;3.95;0.85;;;;;;;;;;5086299;28;20048;-81
2023/03/14 09:10:48;;;;;;;7.68;1.55;;;;;;;;;;5088901;28;20052;-79
2023/03/14 09:13:14;;;;;;;5.65;1.20;;;;;;;;;;5080333;28;20132;-78
2023/03/14 09:15:42;;;;;;;7.25;1.85;;;;;;;;;;5084127;28;20039;-78
2023/03/14 09:18:08;;;;;;;6.20;0.88;;;;;;;;;;5079526;28;20498;-78
2023/03/14 09:20:37;;;;;;;6.20;0.90;;;;;;;;;;5085997;28;20406;-78
2023/03/14 09:23:03;;;;;;;8.10;1.15;;;;;;;;;;5095637;28;20044;-78
2023/03/14 09:25:29;;;;;;;8.48;1.00;;;;;;;;;;5078421;28;20053;-78
2023/03/14 09:27:55;;;;;;;7.18;0.88;;;;;;;;;;5095960;28;20051;-78
2023/03/14 09:30:21;;;;;;;4.93;1.00;;;;;;;;;;5090173;28;20479;-78
2023/03/14 09:32:47;;;;;;;9.63;1.00;;;;;;;;;;5096529;28;20123;-78
2023/03/14 09:35:14;;;;;;;10.50;1.38;;;;;;;;;;5101288;28;20067;-78
2023/03/14 09:37:40;;;;;;;6.43;1.13;;;;;;;;;;5106562;28;20402;-78
2023/03/14 09:40:11;;;;;;;11.10;1.45;;;;;;;;;;5085383;28;20407;-78
2023/03/14 09:42:41;;;;;;;10.07;1.58;;;;;;;;;;5087308;28;20062;-78
2023/03/14 09:45:11;;;;;;;8.27;1.23;;;;;;;;;;5093781;28;20050;-78
2023/03/14 09:47:37;;;;;;;11.45;1.48;;;;;;;;;;5091203;28;20400;-78
2023/03/14 09:50:06;;;;;;;9.27;1.42;;;;;;;;;;5086847;28;20059;-78
2023/03/14 09:52:35;;;;;;;10.77;1.73;;;;;;;;;;5083873;28;20044;-78
2023/03/14 09:55:13;;;;;;;14.45;2.55;;;;;;;;;;5088222;28;20090;-78
2023/03/14 09:57:41;;;;;;;14.88;1.55;;;;;;;;;;5082037;28;20055;-78
2023/03/14 10:00:14;;;;;;;11.30;1.85;;;;;;;;;;5087787;28;20106;-78
2023/03/14 10:02:41;;;;;;;13.80;2.15;;;;;;;;;;5080130;28;20044;-78
2023/03/14 10:05:17;;;;;;;11.05;2.10;;;;;;;;;;5089714;28;20555;-78
2023/03/14 10:07:43;;;;;;;9.32;1.85;;;;;;;;;;5089609;28;20108;-78
2023/03/14 10:10:11;;;;;;;15.48;2.97;;;;;;;;;;5089160;28;20223;-78
2023/03/14 10:12:41;;;;;;;17.33;2.70;;;;;;;;;;5058656;28;20375;-78
2023/03/14 10:15:08;;;;;;;15.98;2.28;;;;;;;;;;5082514;28;20051;-78
2023/03/14 10:17:41;;;;;;;16.75;2.38;;;;;;;;;;5074665;28;20033;-78
2023/03/14 10:20:10;;;;;;;19.00;2.45;;;;;;;;;;5074286;28;20051;-78
2023/03/14 10:22:36;;;;;;;20.60;3.67;;;;;;;;;;5083737;28;20044;-78
2023/03/14 10:25:05;;;;;;;23.27;3.58;;;;;;;;;;5074017;28;20074;-78
2023/03/14 10:27:33;;;;;;;20.42;3.25;;;;;;;;;;5092074;28;20052;-78
2023/03/14 10:30:00;;;;;;;21.55;3.28;;;;;;;;;;5091774;28;20048;-78
2023/03/14 10:32:34;;;;;;;18.30;3.17;;;;;;;;;;5077045;28;20115;-78
2023/03/14 10:35:08;;;;;;;24.60;3.00;;;;;;;;;;5084620;28;20502;-78
2023/03/14 10:37:35;;;;;;;26.65;3.03;;;;;;;;;;5092121;28;20604;-78
2023/03/14 10:40:05;;;;;;;22.80;3.67;;;;;;;;;;5090721;28;20047;-78
2023/03/14 10:42:44;;;;;;;22.65;3.63;;;;;;;;;;5070675;28;20054;-77
2023/03/14 10:45:26;;;;;;;25.95;3.40;;;;;;;;;;5090330;28;20072;-78
2023/03/14 10:47:52;;;;;;;21.50;3.00;;;;;;;;;;5081422;28;20044;-78
2023/03/14 10:50:28;;;;;;;25.48;3.40;;;;;;;;;;5090153;28;20041;-77
2023/03/14 10:52:55;;;;;;;24.02;3.40;;;;;;;;;;5073214;28;20379;-78
2023/03/14 10:55:21;;;;;;;23.27;3.60;;;;;;;;;;5077164;28;20393;-78
2023/03/14 10:57:47;;;;;;;22.70;3.42;;;;;;;;;;5087744;28;20040;-78
2023/03/14 11:00:18;;;;;;;17.17;2.80;;;;;;;;;;5077571;28;20044;-78
2023/03/14 11:02:53;;;;;;;27.90;3.83;;;;;;;;;;5088311;28;20076;-78
2023/03/14 11:05:20;;;;;;;21.88;3.53;;;;;;;;;;5077313;28;20491;-78
2023/03/14 11:07:46;;;;;;;19.35;2.97;;;;;;;;;;5085943;28;20050;-78
2023/03/14 11:10:12;;;;;;;22.02;3.33;;;;;;;;;;5075916;28;20089;-78
2023/03/14 11:12:44;;;;;;;25.35;3.47;;;;;;;;;;5072498;28;20047;-78
2023/03/14 11:15:14;;;;;;;16.05;3.63;;;;;;;;;;5077971;28;20051;-78
2023/03/14 11:17:57;;;;;;;23.47;3.53;;;;;;;;;;5087197;28;20052;-78
2023/03/14 11:20:33;;;;;;;20.38;3.67;;;;;;;;;;5080195;28;20105;-78
2023/03/14 11:23:13;;;;;;;17.85;3.05;;;;;;;;;;5081499;28;20387;-78
2023/03/14 11:25:44;;;;;;;24.35;3.33;;;;;;;;;;5093694;28;20114;-78
2023/03/14 11:28:10;;;;;;;17.08;2.53;;;;;;;;;;5093472;28;20098;-78
2023/03/14 11:30:44;;;;;;;16.80;2.70;;;;;;;;;;5076446;28;20052;-78
2023/03/14 11:33:18;;;;;;;14.30;2.40;;;;;;;;;;5078181;28;20052;-78
2023/03/14 11:35:53;;;;;;;11.90;2.13;;;;;;;;;;5070972;28;20068;-78
2023/03/14 11:38:20;;;;;;;15.95;2.72;;;;;;;;;;5076428;28;20040;-78
2023/03/14 11:40:47;;;;;;;18.52;2.58;;;;;;;;;;5073378;28;20037;-78
2023/03/14 11:43:20;;;;;;;18.00;2.40;;;;;;;;;;5074420;28;20062;-78
2023/03/14 11:45:48;;;;;;;16.25;2.67;;;;;;;;;;5080537;28;20225;-77
2023/03/14 11:48:30;;;;;;;17.75;2.42;;;;;;;;;;5083517;28;20052;-77
2023/03/14 11:50:58;;;;;;;13.27;2.53;;;;;;;;;;5072618;28;20098;-77
2023/03/14 11:53:35;;;;;;;14.02;2.28;;;;;;;;;;5082570;28;20044;-78
2023/03/14 11:56:01;;;;;;;12.77;1.92;;;;;;;;;;5079644;28;20041;-78
2023/03/14 11:58:29;;;;;;;11.63;2.05;;;;;;;;;;5082433;28;20045;-78
2023/03/14 12:00:58;;;;;;;11.82;1.90;;;;;;;;;;5094587;28;20054;-77
2023/03/14 12:03:33;;;;;;;12.95;2.17;;;;;;;;;;5096899;28;20043;-78
2023/03/14 12:06:14;;;;;;;14.00;1.90;;;;;;;;;;5093350;28;20052;-78
2023/03/14 12:08:40;;;;;;;16.23;1.90;;;;;;;;;;5103355;28;20073;-77
2023/03/14 12:11:09;;;;;;;8.75;1.70;;;;;;;;;;5094289;28;20044;-78
2023/03/14 12:13:37;;;;;;;14.15;1.63;;;;;;;;;;5082556;28;20032;-78
2023/03/14 12:16:22;;;;;;;8.65;1.60;;;;;;;;;;5077086;28;20048;-78
2023/03/14 12:18:48;;;;;;;8.50;1.70;;;;;;;;;;5072277;28;20482;-77
2023/03/14 12:21:14;;;;;;;12.02;1.80;;;;;;;;;;5075728;28;20418;-78
2023/03/14 12:23:53;;;;;;;10.52;1.42;;;;;;;;;;5072506;28;20469;-78
2023/03/14 12:26:24;;;;;;;9.55;1.60;;;;;;;;;;5083519;28;20036;-78
2023/03/14 12:28:53;;;;;;;11.55;1.40;;;;;;;;;;5078610;28;20071;-78
2023/03/14 12:31:31;;;;;;;11.82;1.70;;;;;;;;;;5072981;28;20040;-77
2023/03/14 12:34:21;;;;;;;8.57;1.38;;;;;;;;;;5072749;28;20045;-79
2023/03/14 12:36:50;;;;;;;5.72;1.70;;;;;;;;;;5074902;28;20059;-77
2023/03/14 12:39:16;;;;;;;11.45;1.88;;;;;;;;;;5090166;28;20044;-79
2023/03/14 12:41:45;;;;;;;12.70;1.75;;;;;;;;;;5086265;28;20045;-78
2023/03/14 12:44:29;;;;;;;14.85;1.80;;;;;;;;;;5074448;28;20504;-78
2023/03/14 12:46:57;;;;;;;10.90;1.92;;;;;;;;;;5073074;28;20499;-78
2023/03/14 12:49:29;;;;;;;11.98;1.65;;;;;;;;;;5072946;28;20368;-78
2023/03/14 12:52:00;;;;;;;10.90;2.00;;;;;;;;;;5074324;28;20080;-79
2023/03/14 12:54:38;;;;;;;13.43;2.25;;;;;;;;;;5071171;28;20045;-78
2023/03/14 12:57:17;;;;;;;16.25;2.22;;;;;;;;;;5077163;28;20486;-78
2023/03/14 12:59:53;;;;;;;18.85;2.28;;;;;;;;;;5079860;28;20040;-78
2023/03/14 13:02:27;;;;;;;16.80;2.10;;;;;;;;;;5074022;28;20045;-78
2023/03/14 13:05:00;;;;;;;14.43;1.95;;;;;;;;;;5072362;28;20535;-78
2023/03/14 13:07:32;;;;;;;6.97;1.50;;;;;;;;;;5072757;28;20056;-78
2023/03/14 13:10:02;;;;;;;12.02;1.95;;;;;;;;;;5071298;28;20510;-78
2023/03/14 13:12:48;;;;;;;13.63;2.13;;;;;;;;;;5080145;28;20043;-78
2023/03/14 13:15:20;;;;;;;13.60;2.13;;;;;;;;;;5070364;28;20367;-78
2023/03/14 13:17:48;;;;;;;15.63;2.58;;;;;;;;;;5090383;28;20090;-78
2023/03/14 13:20:21;;;;;;;16.02;2.30;;;;;;;;;;5091993;28;20051;-78
2023/03/14 13:22:48;;;;;;;8.45;1.48;;;;;;;;;;5082812;28;20051;-78
2023/03/14 13:25:16;;;;;;;12.65;1.70;;;;;;;;;;5084713;28;20568;-78
2023/03/14 13:27:44;;;;;;;9.07;1.58;;;;;;;;;;5082934;28;20080;-79
2023/03/14 13:30:13;;;;;;;12.95;2.13;;;;;;;;;;5076335;28;20044;-78
2023/03/14 13:32:41;;;;;;;14.30;2.35;;;;;;;;;;5084187;28;20491;-79
2023/03/14 13:35:15;;;;;;;12.73;2.22;;;;;;;;;;5087136;28;20045;-78
2023/03/14 13:37:41;;;;;;;13.52;2.00;;;;;;;;;;5079384;28;20085;-79
2023/03/14 13:40:19;;;;;;;11.52;2.17;;;;;;;;;;5089183;28;20127;-78
2023/03/14 13:42:45;;;;;;;12.48;1.92;;;;;;;;;;5084116;28;20123;-79
2023/03/14 13:45:13;;;;;;;13.40;1.90;;;;;;;;;;5089554;28;20051;-78
2023/03/14 13:47:40;;;;;;;16.02;2.08;;;;;;;;;;5076313;28;20123;-78
2023/03/14 13:50:13;;;;;;;14.13;2.20;;;;;;;;;;5076487;28;20044;-79
2023/03/14 13:52:39;;;;;;;18.00;3.55;;;;;;;;;;5078923;28;20101;-79
2023/03/14 13:55:06;;;;;;;11.98;2.22;;;;;;;;;;5078187;28;20135;-78
2023/03/14 13:57:46;;;;;;;11.38;2.20;;;;;;;;;;5089007;28;20036;-78
2023/03/14 14:00:29;;;;;;;11.07;1.83;;;;;;;;;;5082642;28;20060;-78
2023/03/14 14:02:56;;;;;;;10.70;1.65;;;;;;;;;;5076134;28;20102;-78
2023/03/14 14:05:23;;;;;;;9.20;1.63;;;;;;;;;;5075980;28;20040;-78
2023/03/14 14:07:49;;;;;;;8.27;1.65;;;;;;;;;;5080051;28;20056;-79
2023/03/14 14:10:15;;;;;;;11.90;2.00;;;;;;;;;;5078051;28;20056;-78
2023/03/14 14:12:49;;;;;;;11.02;1.80;;;;;;;;;;5084565;28;20511;-78
2023/03/14 14:15:27;;;;;;;14.63;1.98;;;;;;;;;;5079059;28;20406;-79
2023/03/14 14:17:55;;;;;;;11.02;1.52;;;;;;;;;;5076414;28;20064;-78
2023/03/14 14:20:32;;;;;;;14.95;1.90;;;;;;;;;;5075909;28;20048;-78
2023/03/14 14:22:59;;;;;;;6.18;1.50;;;;;;;;;;5076149;28;20102;-78
2023/03/14 14:25:25;;;;;;;10.23;1.95;;;;;;;;;;5088601;28;20048;-78
2023/03/14 14:27:51;;;;;;;8.35;1.65;;;;;;;;;;5091079;28;20048;-78
2023/03/14 14:30:17;;;;;;;10.18;1.88;;;;;;;;;;5083167;28;20036;-78
2023/03/14 14:32:44;;;;;;;11.63;1.92;;;;;;;;;;5067277;28;20091;-78
2023/03/14 14:35:11;;;;;;;11.35;2.22;;;;;;;;;;5075824;28;20052;-78
2023/03/14 14:37:44;;;;;;;10.27;1.90;;;;;;;;;;5082029;28;20044;-79